Hiwassee Observed Data For Previous 48 Hours

Caption
Day and Hour Reservoir Elevation (behind dam)* Tailwater Elevation (below dam)* Average Hourly Discharge*
6/20/2018 2 AM EDT 1,521.08 1,277.63 0
6/20/2018 3 AM EDT 1,521.10 1,277.82 0
6/20/2018 4 AM EDT 1,521.13 1,277.65 0
6/20/2018 5 AM EDT 1,521.15 1,277.60 0
6/20/2018 6 AM EDT 1,521.17 1,277.53 0
6/20/2018 7 AM EDT 1,521.19 1,277.46 0
6/20/2018 8 AM EDT 1,521.22 1,277.30 0
6/20/2018 9 AM EDT 1,521.22 1,277.22 0
6/20/2018 10 AM EDT 1,521.25 1,277.16 0
6/20/2018 11 AM EDT 1,521.27 1,277.16 36
6/20/2018 12 PM EDT 1,521.22 1,277.67 4,361
6/20/2018 1 PM EDT 1,521.18 1,277.44 4,456
6/20/2018 2 PM EDT 1,521.15 1,277.44 4,443
6/20/2018 3 PM EDT 1,521.08 1,277.59 4,456
6/20/2018 4 PM EDT 1,521.03 1,277.84 4,445
6/20/2018 5 PM EDT 1,520.98 1,277.87 4,449
6/20/2018 6 PM EDT 1,520.93 1,277.92 4,443
6/20/2018 7 PM EDT 1,520.88 1,278.14 4,450
6/20/2018 8 PM EDT 1,520.83 1,278.24 4,439
6/20/2018 9 PM EDT 1,520.83 1,278.31 4,462
6/20/2018 10 PM EDT 1,520.78 1,278.42 4,460
6/20/2018 11 PM EDT 1,520.80 1,278.38 2,618
6/21/2018 12 AM EDT 1,520.80 1,278.48 0
6/21/2018 1 AM EDT 1,520.88 1,278.13 0
6/21/2018 2 AM EDT 1,520.91 1,278.06 0
6/21/2018 3 AM EDT 1,520.96 1,278.30 0
6/21/2018 4 AM EDT 1,520.98 1,278.31 0
6/21/2018 5 AM EDT 1,521.00 1,278.10 0
6/21/2018 6 AM EDT 1,521.02 1,277.98 0
6/21/2018 7 AM EDT 1,521.03 1,278.00 0
6/21/2018 8 AM EDT 1,521.08 1,277.88 0
6/21/2018 9 AM EDT 1,521.05 1,277.73 0
6/21/2018 10 AM EDT 1,521.10 1,277.62 0
6/21/2018 11 AM EDT 1,521.10 1,277.61 0
6/21/2018 12 PM EDT 1,521.10 1,277.48 34
6/21/2018 1 PM EDT 1,521.08 1,277.98 4,361
6/21/2018 2 PM EDT 1,521.03 1,277.68 4,454
6/21/2018 3 PM EDT 1,521.00 1,277.73 4,443
6/21/2018 4 PM EDT 1,520.93 1,277.94 4,450
6/21/2018 5 PM EDT 1,520.91 1,278.15 4,434
6/21/2018 6 PM EDT 1,520.83 1,278.20 4,450
6/21/2018 7 PM EDT 1,520.80 1,278.27 4,451
6/21/2018 8 PM EDT 1,520.76 1,278.43 4,462
6/21/2018 9 PM EDT 1,520.73 1,278.56 4,461
6/21/2018 10 PM EDT 1,520.71 1,278.66 4,464
6/21/2018 11 PM EDT 1,520.73 1,277.89 176
6/22/2018 12 AM EDT 1,520.78 1,278.46 0
6/22/2018 1 AM EDT 1,520.80 1,278.32 0

Elevations are in feet above sea level. Discharges are in cubic feet per second and are reported at the end of the hour.